createdAt,value
2019-05-07T04:27:26.038Z,1014.75
2019-05-07T04:28:25.459Z,1014.73
2019-05-07T04:29:25.430Z,1014.71
2019-05-07T04:30:25.372Z,1014.73
2019-05-07T04:31:25.336Z,1014.70
2019-05-07T04:32:25.335Z,1014.74
2019-05-07T04:33:25.323Z,1014.75
2019-05-07T04:34:25.229Z,1014.75
2019-05-07T04:35:25.195Z,1014.77
2019-05-07T04:36:25.163Z,1014.83
2019-05-07T04:37:25.183Z,1014.78
2019-05-07T04:38:25.099Z,1014.79
2019-05-07T04:39:25.079Z,1014.79
2019-05-07T04:40:25.956Z,1014.82
2019-05-07T04:41:25.001Z,1014.82
2019-05-07T04:42:25.047Z,1014.81
2019-05-07T04:43:24.954Z,1014.81
2019-05-07T04:44:24.898Z,1014.81
2019-05-07T04:45:24.868Z,1014.84
2019-05-07T04:46:24.838Z,1014.87
2019-05-07T04:47:38.669Z,1014.90
2019-05-07T04:48:24.786Z,1014.92
2019-05-07T04:49:24.738Z,1014.96
2019-05-07T04:50:37.816Z,1014.96
2019-05-07T04:51:24.675Z,1015.00
2019-05-07T04:52:24.705Z,1014.99
2019-05-07T04:53:24.632Z,1014.99
2019-05-07T04:54:24.576Z,1015.01
2019-05-07T04:55:24.549Z,1015.03
2019-05-07T04:56:24.517Z,1015.01
2019-05-07T04:57:24.484Z,1015.03
2019-05-07T04:58:26.386Z,1015.02
2019-05-07T04:59:24.414Z,1015.02
2019-05-07T05:00:24.389Z,1015.03
2019-05-07T05:01:24.351Z,1015.05
2019-05-07T05:02:24.319Z,1015.02
2019-05-07T05:03:24.432Z,1015.04
2019-05-07T05:04:30.174Z,1015.09
2019-05-07T05:05:24.231Z,1015.06
2019-05-07T05:06:24.456Z,1015.07
2019-05-07T05:07:24.163Z,1015.10
2019-05-07T05:08:24.162Z,1015.12
2019-05-07T05:09:24.133Z,1015.13
2019-05-07T05:10:24.063Z,1015.18
2019-05-07T05:11:24.030Z,1015.14
2019-05-07T05:12:24.006Z,1015.16
2019-05-07T05:13:24.051Z,1015.14
2019-05-07T05:14:23.941Z,1015.12
2019-05-07T05:15:23.911Z,1015.10
2019-05-07T05:16:23.876Z,1015.12
2019-05-07T05:17:23.841Z,1015.16
2019-05-07T05:18:23.862Z,1015.18
2019-05-07T05:19:23.773Z,1015.18
2019-05-07T05:20:23.746Z,1015.16
2019-05-07T05:21:23.715Z,1015.19
2019-05-07T05:22:23.681Z,1015.22
2019-05-07T05:23:23.712Z,1015.19
2019-05-07T05:24:23.618Z,1015.20
2019-05-07T05:25:23.596Z,1015.19
2019-05-07T05:26:23.555Z,1015.21
2019-05-07T05:27:23.522Z,1015.24
2019-05-07T05:28:23.494Z,1015.22
2019-05-07T05:29:23.485Z,1015.24
2019-05-07T05:30:23.427Z,1015.24
2019-05-07T05:31:23.400Z,1015.23
2019-05-07T05:32:23.365Z,1015.23
2019-05-07T05:33:23.610Z,1015.23
2019-05-07T05:34:23.342Z,1015.25
2019-05-07T05:35:23.290Z,1015.28
2019-05-07T05:36:23.957Z,1015.30
2019-05-07T05:37:23.212Z,1015.27
2019-05-07T05:38:23.175Z,1015.26
2019-05-07T05:39:23.167Z,1015.32
2019-05-07T05:40:23.118Z,1015.26
2019-05-07T05:41:23.089Z,1015.33
2019-05-07T05:42:23.060Z,1015.35
2019-05-07T05:43:23.022Z,1015.30
2019-05-07T05:44:23.106Z,1015.33
2019-05-07T05:45:22.985Z,1015.32
2019-05-07T05:46:22.929Z,1015.38
2019-05-07T05:47:23.120Z,1015.32
2019-05-07T05:48:22.866Z,1015.34
2019-05-07T05:49:23.117Z,1015.38
2019-05-07T05:50:26.459Z,1015.44
2019-05-07T05:51:22.992Z,1015.39
2019-05-07T05:52:22.763Z,1015.43
2019-05-07T05:53:22.709Z,1015.41
2019-05-07T05:54:23.551Z,1015.39
2019-05-07T05:55:22.769Z,1015.40
2019-05-07T05:56:22.943Z,1015.39
2019-05-07T05:57:23.124Z,1015.39
2019-05-07T05:58:24.162Z,1015.37
2019-05-07T05:59:27.663Z,1015.41
2019-05-07T06:00:23.460Z,1015.40
2019-05-07T06:01:22.677Z,1015.34
2019-05-07T06:02:22.852Z,1015.34
2019-05-07T06:03:22.764Z,1015.35
2019-05-07T06:04:22.443Z,1015.41
2019-05-07T06:05:22.376Z,1015.37
2019-05-07T06:06:22.303Z,1015.36
2019-05-07T06:07:22.734Z,1015.35
2019-05-07T06:08:24.004Z,1015.43
2019-05-07T06:09:22.205Z,1015.46
2019-05-07T06:10:22.513Z,1015.39
2019-05-07T06:11:22.143Z,1015.45
2019-05-07T06:12:22.238Z,1015.45
2019-05-07T06:13:23.089Z,1015.41
2019-05-07T06:14:22.271Z,1015.42
2019-05-07T06:15:22.323Z,1015.44
2019-05-07T06:16:22.116Z,1015.46
2019-05-07T06:17:22.477Z,1015.47
2019-05-07T06:18:23.912Z,1015.46
2019-05-07T06:19:22.578Z,1015.49
2019-05-07T06:20:22.605Z,1015.45
2019-05-07T06:21:23.974Z,1015.45
2019-05-07T06:22:22.326Z,1015.47
2019-05-07T06:23:22.512Z,1015.43
2019-05-07T06:24:22.645Z,1015.44
2019-05-07T06:25:24.880Z,1015.42
2019-05-07T06:26:22.691Z,1015.44
2019-05-07T06:27:22.946Z,1015.47
2019-05-07T06:28:22.594Z,1015.45
2019-05-07T06:29:23.121Z,1015.44
2019-05-07T06:30:22.767Z,1015.48
2019-05-07T06:31:22.122Z,1015.46
2019-05-07T06:32:22.930Z,1015.45
2019-05-07T06:33:22.953Z,1015.44
2019-05-07T06:34:21.967Z,1015.43
2019-05-07T06:35:23.027Z,1015.45
2019-05-07T06:36:21.996Z,1015.44
2019-05-07T06:37:22.816Z,1015.45
2019-05-07T06:38:22.016Z,1015.48
2019-05-07T06:39:22.168Z,1015.44
2019-05-07T06:40:24.075Z,1015.47
2019-05-07T06:41:22.696Z,1015.47
2019-05-07T06:42:22.168Z,1015.48
2019-05-07T06:43:21.846Z,1015.44
2019-05-07T06:44:22.354Z,1015.53
2019-05-07T06:45:22.773Z,1015.58
2019-05-07T06:46:23.077Z,1015.57
2019-05-07T06:47:22.171Z,1015.55
2019-05-07T06:48:34.711Z,1015.59
2019-05-07T06:49:22.263Z,1015.60
2019-05-07T06:50:22.056Z,1015.56
2019-05-07T06:51:22.035Z,1015.55
2019-05-07T06:52:22.409Z,1015.55
2019-05-07T06:53:22.253Z,1015.54
2019-05-07T06:54:22.586Z,1015.53
2019-05-07T06:55:22.745Z,1015.50
2019-05-07T06:56:22.906Z,1015.65
2019-05-07T06:57:22.237Z,1015.60
2019-05-07T06:58:21.961Z,1015.62
2019-05-07T06:59:22.514Z,1015.61
2019-05-07T07:00:22.534Z,1015.61
2019-05-07T07:01:22.835Z,1015.63
2019-05-07T07:02:22.488Z,1015.63
2019-05-07T07:03:22.310Z,1015.66
2019-05-07T07:04:22.518Z,1015.62
2019-05-07T07:05:25.325Z,1015.64
2019-05-07T07:06:22.420Z,1015.65
2019-05-07T07:07:27.501Z,1015.61
2019-05-07T07:08:20.372Z,1015.64
2019-05-07T07:09:22.241Z,1015.67
2019-05-07T07:10:22.541Z,1015.69
2019-05-07T07:11:22.421Z,1015.68
2019-05-07T07:12:22.920Z,1015.73
2019-05-07T07:13:22.152Z,1015.80
2019-05-07T07:14:22.577Z,1015.74
2019-05-07T07:15:20.162Z,1015.71
2019-05-07T07:16:22.451Z,1015.69
2019-05-07T07:17:22.144Z,1015.72
2019-05-07T07:18:23.067Z,1015.67
2019-05-07T07:19:20.040Z,1015.67
2019-05-07T07:20:21.887Z,1015.66
2019-05-07T07:21:22.005Z,1015.70
2019-05-07T07:22:22.138Z,1015.69
2019-05-07T07:23:19.920Z,1015.73
2019-05-07T07:24:21.988Z,1015.69
2019-05-07T07:25:19.859Z,1015.67
2019-05-07T07:26:21.907Z,1015.72
2019-05-07T07:27:19.825Z,1015.74
2019-05-07T07:28:21.731Z,1015.73
2019-05-07T07:29:21.495Z,1015.73
2019-05-07T07:30:21.732Z,1015.65
2019-05-07T07:31:19.675Z,1015.69
2019-05-07T07:32:19.677Z,1015.70
2019-05-07T07:33:19.620Z,1015.71
2019-05-07T07:34:19.589Z,1015.71
2019-05-07T07:35:19.560Z,1015.72
2019-05-07T07:36:19.530Z,1015.67
2019-05-07T07:37:19.534Z,1015.69
2019-05-07T07:38:19.467Z,1015.65
2019-05-07T07:39:19.444Z,1015.68
2019-05-07T07:40:19.418Z,1015.65
2019-05-07T07:41:19.386Z,1015.61
2019-05-07T07:42:19.371Z,1015.65
2019-05-07T07:43:19.320Z,1015.67
2019-05-07T07:44:19.292Z,1015.66
2019-05-07T07:45:19.262Z,1015.61
2019-05-07T07:46:19.231Z,1015.61
2019-05-07T07:47:19.223Z,1015.70
2019-05-07T07:48:19.179Z,1015.68
2019-05-07T07:49:19.140Z,1015.62
2019-05-07T07:50:19.152Z,1015.62
2019-05-07T07:51:19.144Z,1015.66
2019-05-07T07:52:19.105Z,1015.60
2019-05-07T07:53:19.053Z,1015.60
2019-05-07T07:54:19.009Z,1015.61
2019-05-07T07:55:18.960Z,1015.68
2019-05-07T07:56:18.930Z,1015.65
2019-05-07T07:57:18.956Z,1015.60
2019-05-07T07:58:18.898Z,1015.60
2019-05-07T07:59:18.889Z,1015.62
2019-05-07T08:00:18.855Z,1015.64
2019-05-07T08:01:18.795Z,1015.62
2019-05-07T08:02:19.131Z,1015.68
2019-05-07T08:03:19.722Z,1015.65
2019-05-07T08:04:18.769Z,1015.68
2019-05-07T08:05:18.734Z,1015.71
2019-05-07T08:06:18.633Z,1015.64
2019-05-07T08:07:18.644Z,1015.66
2019-05-07T08:08:18.576Z,1015.66
2019-05-07T08:09:18.550Z,1015.59
2019-05-07T08:10:18.514Z,1015.56
2019-05-07T08:11:18.494Z,1015.57
2019-05-07T08:12:18.487Z,1015.55
2019-05-07T08:13:18.427Z,1015.54
2019-05-07T08:14:18.417Z,1015.58
2019-05-07T08:15:23.713Z,1015.56
2019-05-07T08:16:18.334Z,1015.60
2019-05-07T08:17:18.334Z,1015.56
2019-05-07T08:18:18.318Z,1015.55
2019-05-07T08:19:21.956Z,1015.58
2019-05-07T08:20:18.220Z,1015.54
2019-05-07T08:21:18.189Z,1015.54
2019-05-07T08:22:18.182Z,1015.53
2019-05-07T08:23:18.144Z,1015.47
2019-05-07T08:24:18.103Z,1015.47
2019-05-07T08:25:18.070Z,1015.51
2019-05-07T08:26:18.045Z,1015.54
2019-05-07T08:27:18.024Z,1015.50
2019-05-07T08:28:18.108Z,1015.53
2019-05-07T08:29:17.974Z,1015.56
2019-05-07T08:30:17.923Z,1015.57
2019-05-07T08:31:17.899Z,1015.55
2019-05-07T08:32:17.870Z,1015.53
2019-05-07T08:33:17.859Z,1015.57
2019-05-07T08:34:17.825Z,1015.55
2019-05-07T08:35:17.778Z,1015.48
2019-05-07T08:36:17.756Z,1015.50
2019-05-07T08:37:17.717Z,1015.48
2019-05-07T08:38:17.820Z,1015.48
2019-05-07T08:39:17.682Z,1015.44
2019-05-07T08:40:17.628Z,1015.41
2019-05-07T08:41:17.606Z,1015.42
2019-05-07T08:42:17.578Z,1015.46
2019-05-07T08:43:17.566Z,1015.44
2019-05-07T08:44:17.514Z,1015.39
2019-05-07T08:45:17.535Z,1015.44
2019-05-07T08:46:18.094Z,1015.44
2019-05-07T08:47:17.438Z,1015.45
2019-05-07T08:48:17.564Z,1015.43
2019-05-07T08:49:17.369Z,1015.41
2019-05-07T08:50:17.345Z,1015.42
2019-05-07T08:51:17.317Z,1015.39
2019-05-07T08:52:17.288Z,1015.40
2019-05-07T08:53:17.277Z,1015.42
2019-05-07T08:54:17.238Z,1015.42
2019-05-07T08:55:17.197Z,1015.46
2019-05-07T08:56:17.170Z,1015.46
2019-05-07T08:57:17.144Z,1015.42
2019-05-07T08:58:17.136Z,1015.46
2019-05-07T08:59:17.083Z,1015.41
2019-05-07T09:00:17.056Z,1015.47
2019-05-07T09:01:17.028Z,1015.44
2019-05-07T09:02:17.009Z,1015.41
2019-05-07T09:03:22.181Z,1015.46
2019-05-07T09:04:16.946Z,1015.47
2019-05-07T09:05:16.922Z,1015.47
2019-05-07T09:06:16.888Z,1015.50
2019-05-07T09:07:16.879Z,1015.52
2019-05-07T09:08:16.859Z,1015.62
2019-05-07T09:09:16.810Z,1015.51
2019-05-07T09:10:16.781Z,1015.45
2019-05-07T09:11:17.495Z,1015.44
2019-05-07T09:12:17.583Z,1015.45
2019-05-07T09:13:16.734Z,1015.48
2019-05-07T09:14:16.713Z,1015.45
2019-05-07T09:15:16.646Z,1015.44
2019-05-07T09:16:16.611Z,1015.45
2019-05-07T09:17:16.582Z,1015.44
2019-05-07T09:18:16.564Z,1015.40
2019-05-07T09:19:16.549Z,1015.40
2019-05-07T09:20:16.498Z,1015.36
2019-05-07T09:21:16.472Z,1015.32
2019-05-07T09:22:16.440Z,1015.35
2019-05-07T09:23:16.406Z,1015.43
2019-05-07T09:24:16.401Z,1015.40
2019-05-07T09:25:16.346Z,1015.37
2019-05-07T09:26:16.318Z,1015.37
2019-05-07T09:27:16.296Z,1015.37
2019-05-07T09:28:16.266Z,1015.35
2019-05-07T09:29:16.260Z,1015.33
2019-05-07T09:30:16.201Z,1015.31
2019-05-07T09:31:16.179Z,1015.37
2019-05-07T09:32:16.150Z,1015.35
2019-05-07T09:33:16.118Z,1015.34
2019-05-07T09:34:16.115Z,1015.28
2019-05-07T09:35:16.067Z,1015.34
2019-05-07T09:36:16.026Z,1015.30
2019-05-07T09:37:16.000Z,1015.34
2019-05-07T09:38:15.971Z,1015.32
2019-05-07T09:39:15.965Z,1015.28
2019-05-07T09:40:15.917Z,1015.24
2019-05-07T09:41:15.907Z,1015.30
2019-05-07T09:42:15.871Z,1015.26
2019-05-07T09:43:15.835Z,1015.27
2019-05-07T09:44:15.804Z,1015.28
2019-05-07T09:45:15.800Z,1015.34
2019-05-07T09:46:15.753Z,1015.31
2019-05-07T09:47:15.723Z,1015.33
2019-05-07T09:48:15.719Z,1015.33
2019-05-07T09:49:15.661Z,1015.27
2019-05-07T09:50:15.662Z,1015.32
2019-05-07T09:51:15.615Z,1015.27
2019-05-07T09:52:15.585Z,1015.27
2019-05-07T09:53:15.551Z,1015.27
2019-05-07T09:54:15.529Z,1015.23
2019-05-07T09:55:17.592Z,1015.25
2019-05-07T09:56:15.468Z,1015.19
2019-05-07T09:57:27.726Z,1015.21
2019-05-07T09:58:15.419Z,1015.22
2019-05-07T09:59:15.387Z,1015.24
2019-05-07T10:00:15.383Z,1015.16
2019-05-07T10:01:15.338Z,1015.23
2019-05-07T10:02:15.303Z,1015.21
2019-05-07T10:03:15.281Z,1015.23
2019-05-07T10:04:15.255Z,1015.19
2019-05-07T10:05:15.271Z,1015.24
2019-05-07T10:06:15.193Z,1015.23
2019-05-07T10:07:15.166Z,1015.17
2019-05-07T10:08:15.140Z,1015.20
2019-05-07T10:09:15.114Z,1015.21
2019-05-07T10:10:15.109Z,1015.18
2019-05-07T10:11:15.061Z,1015.18
2019-05-07T10:12:15.031Z,1015.18
2019-05-07T10:13:15.000Z,1015.14
2019-05-07T10:14:14.970Z,1015.17
2019-05-07T10:15:15.628Z,1015.23
2019-05-07T10:16:14.921Z,1015.21
2019-05-07T10:17:15.507Z,1015.17
2019-05-07T10:18:14.864Z,1015.24
2019-05-07T10:19:14.834Z,1015.19
2019-05-07T10:20:21.522Z,1015.29
2019-05-07T10:21:14.782Z,1015.18
2019-05-07T10:22:14.757Z,1015.18
2019-05-07T10:23:14.720Z,1015.18
2019-05-07T10:24:14.695Z,1015.13
2019-05-07T10:25:15.512Z,1015.20
2019-05-07T10:26:14.656Z,1015.14
2019-05-07T10:27:14.604Z,1015.15
2019-05-07T10:28:14.580Z,1015.09
2019-05-07T10:29:14.548Z,1015.16
2019-05-07T10:30:14.518Z,1015.10
2019-05-07T10:31:14.514Z,1015.18
2019-05-07T10:32:14.466Z,1015.23
2019-05-07T10:33:14.438Z,1015.12
2019-05-07T10:34:14.406Z,1015.12
2019-05-07T10:35:14.383Z,1014.99
2019-05-07T10:36:14.391Z,1015.20
2019-05-07T10:37:14.344Z,1015.14
2019-05-07T10:38:14.296Z,1015.17
2019-05-07T10:39:15.099Z,1015.15
2019-05-07T10:40:17.013Z,1015.17
2019-05-07T10:41:14.239Z,1015.19
2019-05-07T10:42:14.191Z,1015.17
2019-05-07T10:43:15.112Z,1015.22
2019-05-07T10:44:14.136Z,1015.17
2019-05-07T10:45:14.106Z,1015.16
2019-05-07T10:46:14.107Z,1015.17
2019-05-07T10:47:14.077Z,1015.19
2019-05-07T10:48:14.025Z,1015.16
2019-05-07T10:49:14.005Z,1015.17
2019-05-07T10:50:13.976Z,1015.14
2019-05-07T10:51:13.967Z,1015.13
2019-05-07T10:52:13.924Z,1015.19
2019-05-07T10:53:13.890Z,1015.12
2019-05-07T10:54:14.517Z,1015.08
2019-05-07T10:55:13.829Z,1015.13
2019-05-07T10:56:13.849Z,1015.09
2019-05-07T10:57:13.773Z,1015.06
2019-05-07T10:58:13.740Z,1015.05
2019-05-07T10:59:13.713Z,1015.07
2019-05-07T11:00:13.689Z,1014.99
2019-05-07T11:01:13.681Z,1015.02
2019-05-07T11:02:13.636Z,1014.94
2019-05-07T11:03:13.616Z,1014.94
2019-05-07T11:04:13.574Z,1015.03
2019-05-07T11:05:13.556Z,1015.03
2019-05-07T11:06:13.543Z,1014.97
2019-05-07T11:07:13.488Z,1015.00
2019-05-07T11:08:13.462Z,1015.01
2019-05-07T11:09:13.442Z,1015.02
2019-05-07T11:10:13.405Z,1014.97
2019-05-07T11:11:13.378Z,1014.93
2019-05-07T11:12:13.448Z,1014.98
2019-05-07T11:13:13.328Z,1014.94
2019-05-07T11:14:13.302Z,1014.97
2019-05-07T11:15:13.270Z,1014.93
2019-05-07T11:16:13.246Z,1014.95
2019-05-07T11:17:13.732Z,1014.95
2019-05-07T11:18:13.189Z,1014.96
2019-05-07T11:19:13.163Z,1014.92
2019-05-07T11:20:13.162Z,1014.93
2019-05-07T11:21:14.026Z,1014.93
2019-05-07T11:22:13.178Z,1014.96
2019-05-07T11:23:13.059Z,1014.90
2019-05-07T11:24:13.031Z,1014.87
2019-05-07T11:25:13.104Z,1014.91
2019-05-07T11:26:12.977Z,1014.90
2019-05-07T11:27:12.991Z,1014.90
2019-05-07T11:28:12.929Z,1014.87
2019-05-07T11:29:13.128Z,1014.99
2019-05-07T11:30:12.871Z,1014.99
2019-05-07T11:31:12.842Z,1014.93
2019-05-07T11:32:12.855Z,1014.87
2019-05-07T11:33:13.064Z,1014.94
2019-05-07T11:34:13.902Z,1014.82
2019-05-07T11:35:14.731Z,1014.83
2019-05-07T11:36:12.706Z,1014.88
2019-05-07T11:37:12.703Z,1014.87
2019-05-07T11:38:21.104Z,1014.84
2019-05-07T11:39:12.630Z,1014.84
2019-05-07T11:40:13.098Z,1014.71
2019-05-07T11:41:12.834Z,1014.75
2019-05-07T11:42:12.750Z,1014.78
2019-05-07T11:43:13.107Z,1014.75
2019-05-07T11:44:12.496Z,1014.70
2019-05-07T11:45:12.488Z,1014.74
2019-05-07T11:46:13.056Z,1014.84
2019-05-07T11:47:12.439Z,1014.76
2019-05-07T11:48:13.281Z,1014.73
2019-05-07T11:49:18.028Z,1014.70
2019-05-07T11:50:14.698Z,1014.73
2019-05-07T11:51:15.070Z,1014.75
2019-05-07T11:52:14.908Z,1014.72
2019-05-07T11:53:12.258Z,1014.73
2019-05-07T11:54:12.821Z,1014.71
2019-05-07T11:55:12.238Z,1014.80
2019-05-07T11:56:12.147Z,1014.67
2019-05-07T11:57:12.114Z,1014.67
2019-05-07T11:58:12.858Z,1014.66
2019-05-07T11:59:13.445Z,1014.67
2019-05-07T12:00:12.890Z,1014.64
2019-05-07T12:01:12.557Z,1014.66
2019-05-07T12:02:12.192Z,1014.63
2019-05-07T12:03:11.979Z,1014.67
2019-05-07T12:04:12.591Z,1014.63
2019-05-07T12:05:12.187Z,1014.59
2019-05-07T12:06:12.412Z,1014.58
2019-05-07T12:07:12.022Z,1014.61
2019-05-07T12:08:14.032Z,1014.64
2019-05-07T12:09:12.209Z,1014.55
2019-05-07T12:10:12.183Z,1014.62
2019-05-07T12:11:12.005Z,1014.58
2019-05-07T12:12:12.794Z,1014.60
2019-05-07T12:13:21.793Z,1014.62
2019-05-07T12:14:12.406Z,1014.60
2019-05-07T12:15:12.496Z,1014.54
2019-05-07T12:16:14.094Z,1014.62
2019-05-07T12:17:12.028Z,1014.63
2019-05-07T12:18:11.892Z,1014.60
2019-05-07T12:19:12.619Z,1014.61
2019-05-07T12:20:12.515Z,1014.54
2019-05-07T12:21:20.763Z,1014.65
2019-05-07T12:22:12.096Z,1014.53
2019-05-07T12:23:12.164Z,1014.52
2019-05-07T12:24:12.906Z,1014.57
2019-05-07T12:25:12.119Z,1014.59
2019-05-07T12:26:12.570Z,1014.54
2019-05-07T12:27:11.927Z,1014.53
2019-05-07T12:28:13.087Z,1014.56
2019-05-07T12:29:11.849Z,1014.49
2019-05-07T12:30:12.215Z,1014.51
2019-05-07T12:31:12.145Z,1014.53
2019-05-07T12:32:11.162Z,1014.54
2019-05-07T12:33:12.350Z,1014.55
2019-05-07T12:34:11.835Z,1014.56
2019-05-07T12:35:12.712Z,1014.48
2019-05-07T12:36:12.616Z,1014.46
2019-05-07T12:37:12.315Z,1014.45
2019-05-07T12:38:12.781Z,1014.49
2019-05-07T12:39:12.810Z,1014.43
2019-05-07T12:40:12.416Z,1014.41
2019-05-07T12:41:12.785Z,1014.41
2019-05-07T12:42:12.010Z,1014.41
2019-05-07T12:43:10.868Z,1014.40
2019-05-07T12:44:12.799Z,1014.40
2019-05-07T12:45:12.579Z,1014.37
2019-05-07T12:46:11.942Z,1014.36
2019-05-07T12:47:12.024Z,1014.34
2019-05-07T12:48:12.183Z,1014.33
2019-05-07T12:49:12.027Z,1014.28
2019-05-07T12:50:10.662Z,1014.29
2019-05-07T12:51:12.499Z,1014.27
2019-05-07T12:52:12.552Z,1014.31
2019-05-07T12:53:12.341Z,1014.28
2019-05-07T12:54:11.998Z,1014.35
2019-05-07T12:55:11.915Z,1014.34
2019-05-07T12:56:10.493Z,1014.28
2019-05-07T12:57:11.806Z,1014.33
2019-05-07T12:58:12.486Z,1014.27
2019-05-07T12:59:12.656Z,1014.27
2019-05-07T13:00:12.218Z,1014.23
2019-05-07T13:01:10.356Z,1014.25
2019-05-07T13:02:18.336Z,1014.25
2019-05-07T13:03:12.606Z,1014.26
2019-05-07T13:04:10.282Z,1014.27
2019-05-07T13:05:11.898Z,1014.22
2019-05-07T13:06:11.644Z,1014.19
2019-05-07T13:07:11.688Z,1014.25
2019-05-07T13:08:12.216Z,1014.30
2019-05-07T13:09:10.138Z,1014.26
2019-05-07T13:10:10.176Z,1014.22
2019-05-07T13:11:10.102Z,1014.24
2019-05-07T13:12:10.076Z,1014.24
2019-05-07T13:13:12.170Z,1014.25
2019-05-07T13:14:12.457Z,1014.22
2019-05-07T13:15:21.938Z,1014.16
2019-05-07T13:16:09.962Z,1014.19
2019-05-07T13:17:11.960Z,1014.22
2019-05-07T13:18:09.913Z,1014.21
2019-05-07T13:19:09.892Z,1014.23
2019-05-07T13:20:12.015Z,1014.22
2019-05-07T13:21:11.787Z,1014.20
2019-05-07T13:22:09.904Z,1014.21
2019-05-07T13:23:11.839Z,1014.21
2019-05-07T13:24:11.697Z,1014.19
2019-05-07T13:25:09.739Z,1014.23
2019-05-07T13:26:09.690Z,1014.21
2019-05-07T13:27:09.689Z,1014.19
2019-05-07T13:28:11.733Z,1014.23
2019-05-07T13:29:09.631Z,1014.23
2019-05-07T13:30:11.730Z,1014.24
2019-05-07T13:31:09.580Z,1014.23
2019-05-07T13:32:09.529Z,1014.20
2019-05-07T13:33:09.512Z,1014.17
2019-05-07T13:34:09.491Z,1014.17
2019-05-07T13:35:09.452Z,1014.15
2019-05-07T13:36:09.459Z,1014.16
2019-05-07T13:37:09.392Z,1014.14
2019-05-07T13:38:09.377Z,1014.14
2019-05-07T13:39:09.346Z,1014.13
2019-05-07T13:40:09.326Z,1014.17
2019-05-07T13:41:09.313Z,1014.13
2019-05-07T13:42:09.264Z,1014.13
2019-05-07T13:43:09.236Z,1014.11
2019-05-07T13:44:09.211Z,1014.08
2019-05-07T13:45:09.180Z,1014.05
2019-05-07T13:46:09.190Z,1014.04
2019-05-07T13:47:09.131Z,1014.04
2019-05-07T13:48:09.114Z,1014.03
2019-05-07T13:49:09.163Z,1014.00
2019-05-07T13:50:09.051Z,1014.03
2019-05-07T13:51:09.052Z,1014.00
2019-05-07T13:52:08.998Z,1013.97
2019-05-07T13:53:08.970Z,1013.97
2019-05-07T13:54:08.946Z,1013.94
2019-05-07T13:55:08.926Z,1013.93
2019-05-07T13:56:08.919Z,1013.92
2019-05-07T13:57:08.873Z,1013.88
2019-05-07T13:58:08.842Z,1013.88
2019-05-07T13:59:08.822Z,1013.91
2019-05-07T14:00:08.791Z,1013.89
2019-05-07T14:01:08.788Z,1013.89
2019-05-07T14:02:08.744Z,1013.83
2019-05-07T14:03:08.713Z,1013.83
2019-05-07T14:04:08.720Z,1013.83
2019-05-07T14:05:08.661Z,1013.83
2019-05-07T14:06:08.632Z,1013.83
2019-05-07T14:07:08.635Z,1013.80
2019-05-07T14:08:08.581Z,1013.78
2019-05-07T14:09:08.602Z,1013.80
2019-05-07T14:10:08.536Z,1013.81
2019-05-07T14:11:08.506Z,1013.78
2019-05-07T14:12:08.502Z,1013.83
2019-05-07T14:13:14.350Z,1013.83
2019-05-07T14:14:08.424Z,1013.84
2019-05-07T14:15:08.407Z,1013.83
2019-05-07T14:16:08.373Z,1013.76
2019-05-07T14:17:08.386Z,1013.77
2019-05-07T14:18:08.329Z,1013.79
2019-05-07T14:19:08.299Z,1013.81
2019-05-07T14:20:08.313Z,1013.81
2019-05-07T14:21:08.246Z,1013.81
2019-05-07T14:22:18.040Z,1013.80
2019-05-07T14:23:08.206Z,1013.77
2019-05-07T14:24:08.169Z,1013.81
2019-05-07T14:25:08.137Z,1013.72
2019-05-07T14:26:08.129Z,1013.79
2019-05-07T14:27:08.111Z,1013.69
2019-05-07T14:28:08.068Z,1013.68
2019-05-07T14:29:08.033Z,1013.71
2019-05-07T14:30:08.009Z,1013.63
2019-05-07T14:31:07.985Z,1013.66
2019-05-07T14:32:07.991Z,1013.72
2019-05-07T14:33:07.930Z,1013.70
2019-05-07T14:34:07.908Z,1013.67
2019-05-07T14:35:07.927Z,1013.66
2019-05-07T14:36:07.878Z,1013.62
2019-05-07T14:37:07.853Z,1013.69
2019-05-07T14:38:07.800Z,1013.71
2019-05-07T14:39:07.778Z,1013.69
2019-05-07T14:40:07.748Z,1013.73
2019-05-07T14:41:07.731Z,1013.71
2019-05-07T14:42:07.695Z,1013.71
2019-05-07T14:43:07.697Z,1013.70
2019-05-07T14:44:07.645Z,1013.69
2019-05-07T14:45:07.613Z,1013.67
2019-05-07T14:46:07.591Z,1013.68
2019-05-07T14:47:07.568Z,1013.70
2019-05-07T14:48:07.566Z,1013.66
2019-05-07T14:49:07.521Z,1013.70
2019-05-07T14:50:07.556Z,1013.70
2019-05-07T14:51:07.463Z,1013.66
2019-05-07T14:52:07.452Z,1013.67
2019-05-07T14:53:07.435Z,1013.65
2019-05-07T14:54:07.390Z,1013.65
2019-05-07T14:55:07.367Z,1013.66
2019-05-07T14:56:07.342Z,1013.65
2019-05-07T14:57:07.312Z,1013.69
2019-05-07T14:58:07.335Z,1013.64
2019-05-07T14:59:07.265Z,1013.65
2019-05-07T15:00:07.247Z,1013.65
2019-05-07T15:01:07.217Z,1013.64
2019-05-07T15:02:07.197Z,1013.59
2019-05-07T15:03:07.196Z,1013.58
2019-05-07T15:04:07.140Z,1013.58
2019-05-07T15:05:07.119Z,1013.56
2019-05-07T15:06:07.092Z,1013.55
2019-05-07T15:07:07.063Z,1013.57
2019-05-07T15:08:10.921Z,1013.53
2019-05-07T15:09:07.019Z,1013.55
2019-05-07T15:10:07.010Z,1013.56
2019-05-07T15:11:06.970Z,1013.57
2019-05-07T15:12:06.946Z,1013.57
2019-05-07T15:13:06.953Z,1013.56
2019-05-07T15:14:06.890Z,1013.59
2019-05-07T15:15:06.893Z,1013.55
2019-05-07T15:16:06.851Z,1013.57
2019-05-07T15:17:06.847Z,1013.57
2019-05-07T15:18:06.827Z,1013.56
2019-05-07T15:19:07.700Z,1013.55
2019-05-07T15:20:06.783Z,1013.57
2019-05-07T15:21:06.775Z,1013.57
2019-05-07T15:22:06.699Z,1013.53
2019-05-07T15:23:06.757Z,1013.53
2019-05-07T15:24:07.207Z,1013.49
2019-05-07T15:25:06.639Z,1013.53
2019-05-07T15:26:06.720Z,1013.49
2019-05-07T15:27:06.630Z,1013.51
2019-05-07T15:28:06.660Z,1013.47
2019-05-07T15:29:06.674Z,1013.46
2019-05-07T15:30:06.521Z,1013.43
2019-05-07T15:31:06.492Z,1013.44
2019-05-07T15:32:06.456Z,1013.51
2019-05-07T15:33:06.444Z,1013.51
2019-05-07T15:34:06.398Z,1013.49
2019-05-07T15:35:06.370Z,1013.48
2019-05-07T15:36:06.695Z,1013.48
2019-05-07T15:37:06.322Z,1013.49
2019-05-07T15:38:06.323Z,1013.47
2019-05-07T15:39:06.272Z,1013.45
2019-05-07T15:40:06.251Z,1013.45
2019-05-07T15:41:06.220Z,1013.45
2019-05-07T15:42:06.200Z,1013.50
2019-05-07T15:43:06.202Z,1013.48
2019-05-07T15:44:06.173Z,1013.47
2019-05-07T15:45:06.124Z,1013.50
2019-05-07T15:46:06.106Z,1013.49
2019-05-07T15:47:06.069Z,1013.49
2019-05-07T15:48:06.071Z,1013.48
2019-05-07T15:49:06.032Z,1013.43
2019-05-07T15:50:05.992Z,1013.46
2019-05-07T15:51:05.967Z,1013.38
2019-05-07T15:52:05.963Z,1013.42
2019-05-07T15:53:05.934Z,1013.40
2019-05-07T15:54:06.323Z,1013.40
2019-05-07T15:55:05.869Z,1013.40
2019-05-07T15:56:05.889Z,1013.40
2019-05-07T15:57:05.819Z,1013.44
2019-05-07T15:58:05.795Z,1013.41
2019-05-07T15:59:06.840Z,1013.42
2019-05-07T16:00:05.745Z,1013.36
2019-05-07T16:01:05.739Z,1013.36
2019-05-07T16:02:05.696Z,1013.35
2019-05-07T16:03:05.669Z,1013.35
2019-05-07T16:04:18.821Z,1013.33
2019-05-07T16:05:05.654Z,1013.37
2019-05-07T16:06:05.590Z,1013.33
2019-05-07T16:07:05.562Z,1013.35
2019-05-07T16:08:05.539Z,1013.34
2019-05-07T16:09:05.594Z,1013.31
2019-05-07T16:10:05.480Z,1013.33
2019-05-07T16:11:05.462Z,1013.34
2019-05-07T16:12:05.432Z,1013.36
2019-05-07T16:13:05.403Z,1013.37
2019-05-07T16:14:05.413Z,1013.35
2019-05-07T16:15:05.360Z,1013.35
2019-05-07T16:16:05.333Z,1013.33
2019-05-07T16:17:05.303Z,1013.33
2019-05-07T16:18:05.274Z,1013.33
2019-05-07T16:19:05.271Z,1013.32
2019-05-07T16:20:05.234Z,1013.34
2019-05-07T16:21:05.276Z,1013.33
2019-05-07T16:22:05.171Z,1013.41
2019-05-07T16:23:14.635Z,1013.36
2019-05-07T16:24:05.142Z,1013.37
2019-05-07T16:25:07.339Z,1013.38
2019-05-07T16:26:05.232Z,1013.34
2019-05-07T16:27:05.350Z,1013.33
2019-05-07T16:28:05.136Z,1013.38
2019-05-07T16:29:05.053Z,1013.34
2019-05-07T16:30:04.959Z,1013.32
2019-05-07T16:31:04.939Z,1013.34
2019-05-07T16:32:04.913Z,1013.32